sensor_id;sensor_type;location;lat;lon;timestamp;P1;durP1;ratioP1;P2;durP2;ratioP2
74577;SDS011;63173;49.086;33.418;2023-07-28T00:00:56;4.13;;;2.30;;
74577;SDS011;63173;49.086;33.418;2023-07-28T00:03:21;4.70;;;2.50;;
74577;SDS011;63173;49.086;33.418;2023-07-28T00:05:47;4.57;;;2.50;;
74577;SDS011;63173;49.086;33.418;2023-07-28T00:08:12;3.20;;;2.28;;
74577;SDS011;63173;49.086;33.418;2023-07-28T00:10:41;4.82;;;2.53;;
74577;SDS011;63173;49.086;33.418;2023-07-28T00:13:07;4.43;;;2.60;;
74577;SDS011;63173;49.086;33.418;2023-07-28T00:15:33;2.97;;;2.50;;
74577;SDS011;63173;49.086;33.418;2023-07-28T00:17:58;4.72;;;2.60;;
74577;SDS011;63173;49.086;33.418;2023-07-28T00:20:25;3.92;;;2.63;;
74577;SDS011;63173;49.086;33.418;2023-07-28T00:22:51;4.18;;;2.90;;
74577;SDS011;63173;49.086;33.418;2023-07-28T00:25:17;4.00;;;2.80;;
74577;SDS011;63173;49.086;33.418;2023-07-28T00:27:42;5.38;;;2.83;;
74577;SDS011;63173;49.086;33.418;2023-07-28T00:30:08;4.32;;;2.78;;
74577;SDS011;63173;49.086;33.418;2023-07-28T00:32:35;3.58;;;2.90;;
74577;SDS011;63173;49.086;33.418;2023-07-28T00:35:00;6.68;;;3.38;;
74577;SDS011;63173;49.086;33.418;2023-07-28T00:37:26;3.92;;;3.00;;
74577;SDS011;63173;49.086;33.418;2023-07-28T00:39:51;5.43;;;2.90;;
74577;SDS011;63173;49.086;33.418;2023-07-28T00:42:17;6.63;;;3.17;;
74577;SDS011;63173;49.086;33.418;2023-07-28T00:44:42;5.15;;;3.58;;
74577;SDS011;63173;49.086;33.418;2023-07-28T00:47:08;4.75;;;3.15;;
74577;SDS011;63173;49.086;33.418;2023-07-28T00:49:33;8.65;;;3.47;;
74577;SDS011;63173;49.086;33.418;2023-07-28T00:51:59;5.40;;;3.30;;
74577;SDS011;63173;49.086;33.418;2023-07-28T00:54:25;5.18;;;3.70;;
74577;SDS011;63173;49.086;33.418;2023-07-28T00:56:50;6.63;;;3.42;;
74577;SDS011;63173;49.086;33.418;2023-07-28T00:59:16;5.32;;;3.30;;
74577;SDS011;63173;49.086;33.418;2023-07-28T01:01:42;4.57;;;3.38;;
74577;SDS011;63173;49.086;33.418;2023-07-28T01:04:07;5.00;;;3.13;;
74577;SDS011;63173;49.086;33.418;2023-07-28T01:06:37;8.18;;;3.45;;
74577;SDS011;63173;49.086;33.418;2023-07-28T01:09:14;10.70;;;3.85;;
74577;SDS011;63173;49.086;33.418;2023-07-28T01:11:53;9.10;;;4.18;;
74577;SDS011;63173;49.086;33.418;2023-07-28T01:14:20;18.15;;;3.92;;
74577;SDS011;63173;49.086;33.418;2023-07-28T01:16:45;20.17;;;4.28;;
74577;SDS011;63173;49.086;33.418;2023-07-28T01:19:11;16.23;;;4.15;;
74577;SDS011;63173;49.086;33.418;2023-07-28T01:21:37;17.67;;;4.13;;
74577;SDS011;63173;49.086;33.418;2023-07-28T01:24:15;7.35;;;3.72;;
74577;SDS011;63173;49.086;33.418;2023-07-28T01:27:03;6.00;;;3.53;;
74577;SDS011;63173;49.086;33.418;2023-07-28T01:29:29;5.35;;;3.58;;
74577;SDS011;63173;49.086;33.418;2023-07-28T01:31:58;6.97;;;3.88;;
74577;SDS011;63173;49.086;33.418;2023-07-28T01:34:24;6.43;;;4.00;;
74577;SDS011;63173;49.086;33.418;2023-07-28T01:36:50;18.33;;;4.63;;
74577;SDS011;63173;49.086;33.418;2023-07-28T01:39:15;17.90;;;4.88;;
74577;SDS011;63173;49.086;33.418;2023-07-28T01:41:40;17.60;;;5.10;;
74577;SDS011;63173;49.086;33.418;2023-07-28T01:44:10;13.60;;;4.18;;
74577;SDS011;63173;49.086;33.418;2023-07-28T01:46:35;14.48;;;4.28;;
74577;SDS011;63173;49.086;33.418;2023-07-28T01:49:01;12.07;;;4.30;;
74577;SDS011;63173;49.086;33.418;2023-07-28T01:51:26;11.13;;;4.47;;
74577;SDS011;63173;49.086;33.418;2023-07-28T01:53:51;12.00;;;4.13;;
74577;SDS011;63173;49.086;33.418;2023-07-28T01:56:17;11.05;;;4.05;;
74577;SDS011;63173;49.086;33.418;2023-07-28T01:58:42;19.70;;;4.68;;
74577;SDS011;63173;49.086;33.418;2023-07-28T02:01:08;12.80;;;4.03;;
74577;SDS011;63173;49.086;33.418;2023-07-28T02:03:33;20.83;;;5.25;;
74577;SDS011;63173;49.086;33.418;2023-07-28T02:06:00;13.75;;;4.15;;
74577;SDS011;63173;49.086;33.418;2023-07-28T02:08:25;22.48;;;4.40;;
74577;SDS011;63173;49.086;33.418;2023-07-28T02:10:52;15.00;;;4.38;;
74577;SDS011;63173;49.086;33.418;2023-07-28T02:13:18;12.23;;;4.32;;
74577;SDS011;63173;49.086;33.418;2023-07-28T02:15:43;13.90;;;4.75;;
74577;SDS011;63173;49.086;33.418;2023-07-28T02:18:09;16.40;;;4.85;;
74577;SDS011;63173;49.086;33.418;2023-07-28T02:20:34;14.98;;;5.40;;
74577;SDS011;63173;49.086;33.418;2023-07-28T02:23:00;10.50;;;4.63;;
74577;SDS011;63173;49.086;33.418;2023-07-28T02:25:26;8.52;;;4.88;;
74577;SDS011;63173;49.086;33.418;2023-07-28T02:27:52;15.00;;;4.60;;
74577;SDS011;63173;49.086;33.418;2023-07-28T02:30:17;20.13;;;5.22;;
74577;SDS011;63173;49.086;33.418;2023-07-28T02:32:42;15.15;;;4.90;;
74577;SDS011;63173;49.086;33.418;2023-07-28T02:35:08;12.07;;;5.22;;
74577;SDS011;63173;49.086;33.418;2023-07-28T02:37:33;23.55;;;5.10;;
74577;SDS011;63173;49.086;33.418;2023-07-28T02:39:59;27.33;;;5.40;;
74577;SDS011;63173;49.086;33.418;2023-07-28T02:42:24;22.48;;;6.57;;
74577;SDS011;63173;49.086;33.418;2023-07-28T02:44:50;10.02;;;5.40;;
74577;SDS011;63173;49.086;33.418;2023-07-28T02:47:16;11.90;;;5.25;;
74577;SDS011;63173;49.086;33.418;2023-07-28T02:49:41;12.73;;;5.78;;
74577;SDS011;63173;49.086;33.418;2023-07-28T02:52:08;22.23;;;5.75;;
74577;SDS011;63173;49.086;33.418;2023-07-28T02:54:33;8.07;;;5.00;;
74577;SDS011;63173;49.086;33.418;2023-07-28T02:56:59;10.65;;;4.72;;
74577;SDS011;63173;49.086;33.418;2023-07-28T02:59:24;10.38;;;5.15;;
74577;SDS011;63173;49.086;33.418;2023-07-28T03:01:50;14.77;;;4.88;;
74577;SDS011;63173;49.086;33.418;2023-07-28T03:04:17;7.40;;;4.43;;
74577;SDS011;63173;49.086;33.418;2023-07-28T03:06:47;6.07;;;4.25;;
74577;SDS011;63173;49.086;33.418;2023-07-28T03:09:12;8.68;;;4.57;;
74577;SDS011;63173;49.086;33.418;2023-07-28T03:11:38;8.20;;;4.32;;
74577;SDS011;63173;49.086;33.418;2023-07-28T03:14:04;12.77;;;4.88;;
74577;SDS011;63173;49.086;33.418;2023-07-28T03:16:29;12.30;;;4.93;;
74577;SDS011;63173;49.086;33.418;2023-07-28T03:18:55;13.13;;;4.65;;
74577;SDS011;63173;49.086;33.418;2023-07-28T03:21:20;15.90;;;4.78;;
74577;SDS011;63173;49.086;33.418;2023-07-28T03:23:46;11.98;;;4.22;;
74577;SDS011;63173;49.086;33.418;2023-07-28T03:26:11;8.30;;;4.20;;
74577;SDS011;63173;49.086;33.418;2023-07-28T03:28:37;5.97;;;3.97;;
74577;SDS011;63173;49.086;33.418;2023-07-28T03:31:02;6.20;;;3.60;;
74577;SDS011;63173;49.086;33.418;2023-07-28T03:33:27;5.93;;;2.90;;
74577;SDS011;63173;49.086;33.418;2023-07-28T03:35:53;4.32;;;3.00;;
74577;SDS011;63173;49.086;33.418;2023-07-28T03:38:18;9.50;;;2.97;;
74577;SDS011;63173;49.086;33.418;2023-07-28T03:40:44;5.05;;;2.53;;
74577;SDS011;63173;49.086;33.418;2023-07-28T03:43:09;6.30;;;2.55;;
74577;SDS011;63173;49.086;33.418;2023-07-28T03:45:35;4.40;;;2.30;;
74577;SDS011;63173;49.086;33.418;2023-07-28T03:48:01;3.33;;;1.95;;
74577;SDS011;63173;49.086;33.418;2023-07-28T03:50:26;4.00;;;1.40;;
74577;SDS011;63173;49.086;33.418;2023-07-28T03:52:53;14.07;;;2.80;;
74577;SDS011;63173;49.086;33.418;2023-07-28T03:55:18;13.70;;;2.28;;
74577;SDS011;63173;49.086;33.418;2023-07-28T03:57:43;11.05;;;2.13;;
74577;SDS011;63173;49.086;33.418;2023-07-28T04:00:09;10.10;;;1.58;;
74577;SDS011;63173;49.086;33.418;2023-07-28T04:02:35;12.05;;;1.50;;
74577;SDS011;63173;49.086;33.418;2023-07-28T04:05:01;7.95;;;1.73;;
74577;SDS011;63173;49.086;33.418;2023-07-28T04:07:26;5.78;;;1.55;;
74577;SDS011;63173;49.086;33.418;2023-07-28T04:09:52;5.00;;;1.60;;
74577;SDS011;63173;49.086;33.418;2023-07-28T04:12:17;8.88;;;1.70;;
74577;SDS011;63173;49.086;33.418;2023-07-28T04:14:42;3.28;;;1.20;;
74577;SDS011;63173;49.086;33.418;2023-07-28T04:17:08;2.47;;;1.20;;
74577;SDS011;63173;49.086;33.418;2023-07-28T04:19:33;1.85;;;1.30;;
74577;SDS011;63173;49.086;33.418;2023-07-28T04:21:59;5.68;;;1.20;;
74577;SDS011;63173;49.086;33.418;2023-07-28T04:24:25;4.22;;;1.27;;
74577;SDS011;63173;49.086;33.418;2023-07-28T04:26:50;3.95;;;1.27;;
74577;SDS011;63173;49.086;33.418;2023-07-28T04:29:16;3.08;;;1.30;;
74577;SDS011;63173;49.086;33.418;2023-07-28T04:31:42;2.95;;;1.42;;
74577;SDS011;63173;49.086;33.418;2023-07-28T04:34:07;3.75;;;1.10;;
74577;SDS011;63173;49.086;33.418;2023-07-28T04:36:33;1.20;;;1.10;;
74577;SDS011;63173;49.086;33.418;2023-07-28T04:38:58;1.35;;;0.90;;
74577;SDS011;63173;49.086;33.418;2023-07-28T04:41:23;1.67;;;1.23;;
74577;SDS011;63173;49.086;33.418;2023-07-28T04:43:49;2.72;;;1.30;;
74577;SDS011;63173;49.086;33.418;2023-07-28T04:46:15;2.80;;;1.80;;
74577;SDS011;63173;49.086;33.418;2023-07-28T04:48:40;5.20;;;1.55;;
74577;SDS011;63173;49.086;33.418;2023-07-28T04:51:05;3.30;;;1.60;;
74577;SDS011;63173;49.086;33.418;2023-07-28T04:53:31;2.08;;;1.80;;
74577;SDS011;63173;49.086;33.418;2023-07-28T04:55:56;6.90;;;1.70;;
74577;SDS011;63173;49.086;33.418;2023-07-28T04:58:22;4.80;;;2.10;;
74577;SDS011;63173;49.086;33.418;2023-07-28T05:00:47;5.90;;;2.10;;
74577;SDS011;63173;49.086;33.418;2023-07-28T05:03:13;4.18;;;2.33;;
74577;SDS011;63173;49.086;33.418;2023-07-28T05:05:38;4.90;;;2.47;;
74577;SDS011;63173;49.086;33.418;2023-07-28T05:08:04;5.35;;;2.20;;
74577;SDS011;63173;49.086;33.418;2023-07-28T05:10:29;4.05;;;2.33;;
74577;SDS011;63173;49.086;33.418;2023-07-28T05:12:55;4.15;;;2.20;;
74577;SDS011;63173;49.086;33.418;2023-07-28T05:15:21;5.30;;;2.35;;
74577;SDS011;63173;49.086;33.418;2023-07-28T05:17:48;3.13;;;2.17;;
74577;SDS011;63173;49.086;33.418;2023-07-28T05:20:14;2.58;;;1.77;;
74577;SDS011;63173;49.086;33.418;2023-07-28T05:22:39;4.75;;;2.00;;
74577;SDS011;63173;49.086;33.418;2023-07-28T05:25:05;4.43;;;2.10;;
74577;SDS011;63173;49.086;33.418;2023-07-28T05:27:32;4.22;;;2.00;;
74577;SDS011;63173;49.086;33.418;2023-07-28T05:29:57;2.92;;;2.17;;
74577;SDS011;63173;49.086;33.418;2023-07-28T05:32:23;4.47;;;2.42;;
74577;SDS011;63173;49.086;33.418;2023-07-28T05:34:48;5.32;;;2.40;;
74577;SDS011;63173;49.086;33.418;2023-07-28T05:37:14;5.28;;;2.53;;
74577;SDS011;63173;49.086;33.418;2023-07-28T05:39:39;4.28;;;1.98;;
74577;SDS011;63173;49.086;33.418;2023-07-28T05:42:04;2.95;;;1.90;;
74577;SDS011;63173;49.086;33.418;2023-07-28T05:44:30;5.50;;;2.13;;
74577;SDS011;63173;49.086;33.418;2023-07-28T05:46:55;3.20;;;2.15;;
74577;SDS011;63173;49.086;33.418;2023-07-28T05:49:21;3.92;;;2.50;;
74577;SDS011;63173;49.086;33.418;2023-07-28T05:51:46;6.50;;;2.55;;
74577;SDS011;63173;49.086;33.418;2023-07-28T05:54:12;5.90;;;2.90;;
74577;SDS011;63173;49.086;33.418;2023-07-28T05:56:41;4.72;;;2.70;;
74577;SDS011;63173;49.086;33.418;2023-07-28T05:59:07;4.75;;;2.92;;
74577;SDS011;63173;49.086;33.418;2023-07-28T06:01:32;7.32;;;2.70;;
74577;SDS011;63173;49.086;33.418;2023-07-28T06:03:58;6.22;;;2.83;;
74577;SDS011;63173;49.086;33.418;2023-07-28T06:06:24;3.40;;;2.50;;
74577;SDS011;63173;49.086;33.418;2023-07-28T06:08:51;3.25;;;2.42;;
74577;SDS011;63173;49.086;33.418;2023-07-28T06:11:16;4.68;;;2.53;;
74577;SDS011;63173;49.086;33.418;2023-07-28T06:13:41;4.45;;;2.40;;
74577;SDS011;63173;49.086;33.418;2023-07-28T06:16:07;3.10;;;2.08;;
74577;SDS011;63173;49.086;33.418;2023-07-28T06:18:32;3.85;;;2.42;;
74577;SDS011;63173;49.086;33.418;2023-07-28T06:20:58;4.45;;;2.38;;
74577;SDS011;63173;49.086;33.418;2023-07-28T06:23:23;2.88;;;1.83;;
74577;SDS011;63173;49.086;33.418;2023-07-28T06:25:49;6.93;;;2.20;;
74577;SDS011;63173;49.086;33.418;2023-07-28T06:28:14;2.83;;;1.90;;
74577;SDS011;63173;49.086;33.418;2023-07-28T06:30:40;7.05;;;1.90;;
74577;SDS011;63173;49.086;33.418;2023-07-28T06:33:06;8.00;;;2.13;;
74577;SDS011;63173;49.086;33.418;2023-07-28T06:35:32;3.05;;;2.10;;
74577;SDS011;63173;49.086;33.418;2023-07-28T06:40:26;3.78;;;1.88;;
74577;SDS011;63173;49.086;33.418;2023-07-28T06:42:51;5.82;;;2.00;;
74577;SDS011;63173;49.086;33.418;2023-07-28T06:45:17;3.35;;;1.90;;
74577;SDS011;63173;49.086;33.418;2023-07-28T06:47:42;3.42;;;2.30;;
74577;SDS011;63173;49.086;33.418;2023-07-28T06:50:08;3.20;;;2.05;;
74577;SDS011;63173;49.086;33.418;2023-07-28T06:52:34;3.45;;;1.92;;
74577;SDS011;63173;49.086;33.418;2023-07-28T06:54:59;4.60;;;2.05;;
74577;SDS011;63173;49.086;33.418;2023-07-28T06:57:24;3.67;;;1.75;;
74577;SDS011;63173;49.086;33.418;2023-07-28T06:59:50;5.38;;;2.00;;
74577;SDS011;63173;49.086;33.418;2023-07-28T07:02:16;2.70;;;1.75;;
74577;SDS011;63173;49.086;33.418;2023-07-28T07:04:41;5.63;;;1.70;;
74577;SDS011;63173;49.086;33.418;2023-07-28T07:07:07;4.00;;;2.05;;
74577;SDS011;63173;49.086;33.418;2023-07-28T07:09:32;5.72;;;2.78;;
74577;SDS011;63173;49.086;33.418;2023-07-28T07:11:58;2.90;;;1.70;;
74577;SDS011;63173;49.086;33.418;2023-07-28T07:14:23;2.97;;;2.00;;
74577;SDS011;63173;49.086;33.418;2023-07-28T07:16:49;3.40;;;2.15;;
74577;SDS011;63173;49.086;33.418;2023-07-28T07:19:14;2.72;;;1.77;;
74577;SDS011;63173;49.086;33.418;2023-07-28T07:21:40;4.55;;;1.40;;
74577;SDS011;63173;49.086;33.418;2023-07-28T07:24:06;3.80;;;1.52;;
74577;SDS011;63173;49.086;33.418;2023-07-28T07:26:35;1.52;;;1.40;;
74577;SDS011;63173;49.086;33.418;2023-07-28T07:29:00;1.88;;;1.38;;
74577;SDS011;63173;49.086;33.418;2023-07-28T07:31:26;3.58;;;1.67;;
74577;SDS011;63173;49.086;33.418;2023-07-28T07:33:52;2.00;;;1.60;;
74577;SDS011;63173;49.086;33.418;2023-07-28T07:36:18;3.72;;;1.88;;
74577;SDS011;63173;49.086;33.418;2023-07-28T07:38:44;2.75;;;2.10;;
74577;SDS011;63173;49.086;33.418;2023-07-28T07:41:11;3.42;;;2.38;;
74577;SDS011;63173;49.086;33.418;2023-07-28T07:43:49;5.32;;;2.72;;
74577;SDS011;63173;49.086;33.418;2023-07-28T07:46:18;3.70;;;2.70;;
74577;SDS011;63173;49.086;33.418;2023-07-28T07:48:44;5.95;;;3.60;;
74577;SDS011;63173;49.086;33.418;2023-07-28T07:51:10;6.32;;;3.70;;
74577;SDS011;63173;49.086;33.418;2023-07-28T07:53:36;9.13;;;5.68;;
74577;SDS011;63173;49.086;33.418;2023-07-28T07:56:04;7.05;;;5.60;;
74577;SDS011;63173;49.086;33.418;2023-07-28T07:58:30;5.43;;;4.25;;
74577;SDS011;63173;49.086;33.418;2023-07-28T08:00:56;6.57;;;3.20;;
74577;SDS011;63173;49.086;33.418;2023-07-28T08:03:22;9.65;;;4.00;;
74577;SDS011;63173;49.086;33.418;2023-07-28T08:05:47;4.00;;;3.08;;
74577;SDS011;63173;49.086;33.418;2023-07-28T08:08:13;6.63;;;3.88;;
74577;SDS011;63173;49.086;33.418;2023-07-28T08:10:51;5.53;;;3.72;;
74577;SDS011;63173;49.086;33.418;2023-07-28T08:13:17;5.20;;;4.10;;
74577;SDS011;63173;49.086;33.418;2023-07-28T08:15:43;6.50;;;4.40;;
74577;SDS011;63173;49.086;33.418;2023-07-28T08:18:09;5.80;;;4.15;;
74577;SDS011;63173;49.086;33.418;2023-07-28T08:20:35;5.20;;;3.75;;
74577;SDS011;63173;49.086;33.418;2023-07-28T08:23:01;5.90;;;4.50;;
74577;SDS011;63173;49.086;33.418;2023-07-28T08:25:26;4.82;;;3.35;;
74577;SDS011;63173;49.086;33.418;2023-07-28T08:27:52;6.05;;;4.38;;
74577;SDS011;63173;49.086;33.418;2023-07-28T08:30:18;6.20;;;4.65;;
74577;SDS011;63173;49.086;33.418;2023-07-28T08:32:43;7.75;;;4.72;;
74577;SDS011;63173;49.086;33.418;2023-07-28T08:35:09;6.40;;;4.32;;
74577;SDS011;63173;49.086;33.418;2023-07-28T08:37:35;6.05;;;3.92;;
74577;SDS011;63173;49.086;33.418;2023-07-28T08:40:00;4.60;;;3.90;;
74577;SDS011;63173;49.086;33.418;2023-07-28T08:42:28;6.00;;;4.07;;
74577;SDS011;63173;49.086;33.418;2023-07-28T08:45:00;4.43;;;3.60;;
74577;SDS011;63173;49.086;33.418;2023-07-28T08:47:26;5.50;;;3.72;;
74577;SDS011;63173;49.086;33.418;2023-07-28T08:49:51;6.72;;;4.70;;
74577;SDS011;63173;49.086;33.418;2023-07-28T08:52:17;6.43;;;4.40;;
74577;SDS011;63173;49.086;33.418;2023-07-28T08:54:43;5.50;;;3.95;;
74577;SDS011;63173;49.086;33.418;2023-07-28T08:57:08;6.03;;;4.32;;
74577;SDS011;63173;49.086;33.418;2023-07-28T08:59:35;5.65;;;3.47;;
74577;SDS011;63173;49.086;33.418;2023-07-28T09:02:01;8.63;;;3.85;;
74577;SDS011;63173;49.086;33.418;2023-07-28T09:04:27;4.65;;;3.63;;
74577;SDS011;63173;49.086;33.418;2023-07-28T09:06:53;4.80;;;3.17;;
74577;SDS011;63173;49.086;33.418;2023-07-28T09:09:20;5.93;;;3.65;;
74577;SDS011;63173;49.086;33.418;2023-07-28T09:11:52;4.80;;;3.30;;
74577;SDS011;63173;49.086;33.418;2023-07-28T09:14:20;5.88;;;3.22;;
74577;SDS011;63173;49.086;33.418;2023-07-28T09:16:48;4.70;;;3.13;;
74577;SDS011;63173;49.086;33.418;2023-07-28T09:19:14;5.20;;;3.40;;
74577;SDS011;63173;49.086;33.418;2023-07-28T09:21:41;4.40;;;3.10;;
74577;SDS011;63173;49.086;33.418;2023-07-28T09:24:08;4.03;;;3.00;;
74577;SDS011;63173;49.086;33.418;2023-07-28T09:26:36;4.15;;;3.03;;
74577;SDS011;63173;49.086;33.418;2023-07-28T09:29:22;5.13;;;3.25;;
74577;SDS011;63173;49.086;33.418;2023-07-28T09:31:48;4.15;;;2.97;;
74577;SDS011;63173;49.086;33.418;2023-07-28T09:34:27;4.97;;;3.08;;
74577;SDS011;63173;49.086;33.418;2023-07-28T09:36:57;5.60;;;3.53;;
74577;SDS011;63173;49.086;33.418;2023-07-28T09:39:23;4.68;;;3.13;;
74577;SDS011;63173;49.086;33.418;2023-07-28T09:41:49;5.68;;;3.47;;
74577;SDS011;63173;49.086;33.418;2023-07-28T09:44:15;4.65;;;2.90;;
74577;SDS011;63173;49.086;33.418;2023-07-28T09:46:49;3.53;;;2.72;;
74577;SDS011;63173;49.086;33.418;2023-07-28T09:49:19;9.15;;;3.08;;
74577;SDS011;63173;49.086;33.418;2023-07-28T09:51:48;7.90;;;3.50;;
74577;SDS011;63173;49.086;33.418;2023-07-28T09:54:24;5.13;;;3.47;;
74577;SDS011;63173;49.086;33.418;2023-07-28T09:56:56;4.03;;;2.80;;
74577;SDS011;63173;49.086;33.418;2023-07-28T09:59:28;4.10;;;3.00;;
74577;SDS011;63173;49.086;33.418;2023-07-28T10:01:58;3.67;;;3.28;;
74577;SDS011;63173;49.086;33.418;2023-07-28T10:04:24;3.90;;;3.00;;
74577;SDS011;63173;49.086;33.418;2023-07-28T10:06:50;5.20;;;2.78;;
74577;SDS011;63173;49.086;33.418;2023-07-28T10:09:22;8.13;;;5.13;;
74577;SDS011;63173;49.086;33.418;2023-07-28T10:11:49;6.25;;;4.70;;
74577;SDS011;63173;49.086;33.418;2023-07-28T10:14:25;3.90;;;3.05;;
74577;SDS011;63173;49.086;33.418;2023-07-28T10:16:52;5.30;;;2.75;;
74577;SDS011;63173;49.086;33.418;2023-07-28T10:19:19;6.55;;;2.65;;
74577;SDS011;63173;49.086;33.418;2023-07-28T10:21:45;5.90;;;2.55;;
74577;SDS011;63173;49.086;33.418;2023-07-28T10:24:11;3.03;;;2.42;;
74577;SDS011;63173;49.086;33.418;2023-07-28T10:26:38;4.30;;;2.33;;
74577;SDS011;63173;49.086;33.418;2023-07-28T10:29:09;4.40;;;2.63;;
74577;SDS011;63173;49.086;33.418;2023-07-28T10:31:36;4.13;;;2.50;;
74577;SDS011;63173;49.086;33.418;2023-07-28T10:34:01;4.32;;;2.60;;
74577;SDS011;63173;49.086;33.418;2023-07-28T10:39:14;5.28;;;2.65;;
74577;SDS011;63173;49.086;33.418;2023-07-28T10:44:48;4.13;;;2.50;;
74577;SDS011;63173;49.086;33.418;2023-07-28T10:47:14;3.42;;;2.40;;
74577;SDS011;63173;49.086;33.418;2023-07-28T10:49:40;6.78;;;2.65;;
74577;SDS011;63173;49.086;33.418;2023-07-28T10:52:06;4.75;;;2.75;;
74577;SDS011;63173;49.086;33.418;2023-07-28T10:54:31;7.55;;;3.10;;
74577;SDS011;63173;49.086;33.418;2023-07-28T10:57:01;7.07;;;3.22;;
74577;SDS011;63173;49.086;33.418;2023-07-28T10:59:27;4.63;;;2.65;;
74577;SDS011;63173;49.086;33.418;2023-07-28T11:01:53;5.10;;;2.55;;
74577;SDS011;63173;49.086;33.418;2023-07-28T11:04:21;7.90;;;2.80;;
74577;SDS011;63173;49.086;33.418;2023-07-28T11:06:48;3.85;;;2.67;;
74577;SDS011;63173;49.086;33.418;2023-07-28T11:09:18;5.20;;;3.05;;
74577;SDS011;63173;49.086;33.418;2023-07-28T11:11:46;5.88;;;2.60;;
74577;SDS011;63173;49.086;33.418;2023-07-28T11:14:14;12.95;;;2.90;;
74577;SDS011;63173;49.086;33.418;2023-07-28T11:16:41;7.38;;;3.13;;
74577;SDS011;63173;49.086;33.418;2023-07-28T11:19:07;4.47;;;3.00;;
74577;SDS011;63173;49.086;33.418;2023-07-28T11:21:39;7.50;;;3.38;;
74577;SDS011;63173;49.086;33.418;2023-07-28T11:24:09;3.50;;;2.67;;
74577;SDS011;63173;49.086;33.418;2023-07-28T11:26:35;4.40;;;2.80;;
74577;SDS011;63173;49.086;33.418;2023-07-28T11:29:02;7.05;;;2.95;;
74577;SDS011;63173;49.086;33.418;2023-07-28T11:31:29;3.92;;;2.50;;
74577;SDS011;63173;49.086;33.418;2023-07-28T11:33:54;4.72;;;2.90;;
74577;SDS011;63173;49.086;33.418;2023-07-28T11:36:26;6.80;;;2.67;;
74577;SDS011;63173;49.086;33.418;2023-07-28T11:38:52;5.72;;;2.55;;
74577;SDS011;63173;49.086;33.418;2023-07-28T11:41:19;5.25;;;2.78;;
74577;SDS011;63173;49.086;33.418;2023-07-28T11:43:49;9.20;;;3.35;;
74577;SDS011;63173;49.086;33.418;2023-07-28T11:49:14;5.50;;;2.42;;
74577;SDS011;63173;49.086;33.418;2023-07-28T11:51:41;5.63;;;2.72;;
74577;SDS011;63173;49.086;33.418;2023-07-28T11:54:10;4.50;;;2.65;;
74577;SDS011;63173;49.086;33.418;2023-07-28T11:56:42;6.97;;;2.53;;
74577;SDS011;63173;49.086;33.418;2023-07-28T11:59:09;3.20;;;2.22;;
74577;SDS011;63173;49.086;33.418;2023-07-28T12:01:50;4.68;;;2.20;;
74577;SDS011;63173;49.086;33.418;2023-07-28T12:04:35;3.53;;;2.22;;
74577;SDS011;63173;49.086;33.418;2023-07-28T12:07:05;5.93;;;2.10;;
74577;SDS011;63173;49.086;33.418;2023-07-28T12:09:53;4.10;;;2.10;;
74577;SDS011;63173;49.086;33.418;2023-07-28T12:12:19;5.55;;;2.58;;
74577;SDS011;63173;49.086;33.418;2023-07-28T12:14:46;4.40;;;2.45;;
74577;SDS011;63173;49.086;33.418;2023-07-28T12:17:13;4.70;;;1.98;;
74577;SDS011;63173;49.086;33.418;2023-07-28T12:19:58;2.45;;;1.92;;
74577;SDS011;63173;49.086;33.418;2023-07-28T12:22:39;4.47;;;1.92;;
74577;SDS011;63173;49.086;33.418;2023-07-28T12:25:08;2.53;;;1.80;;
74577;SDS011;63173;49.086;33.418;2023-07-28T12:27:34;3.20;;;1.80;;
74577;SDS011;63173;49.086;33.418;2023-07-28T12:30:00;4.82;;;2.10;;
74577;SDS011;63173;49.086;33.418;2023-07-28T12:32:26;3.38;;;1.88;;
74577;SDS011;63173;49.086;33.418;2023-07-28T12:34:51;3.05;;;1.75;;
74577;SDS011;63173;49.086;33.418;2023-07-28T12:37:17;3.92;;;2.00;;
74577;SDS011;63173;49.086;33.418;2023-07-28T12:39:43;5.70;;;1.88;;
74577;SDS011;63173;49.086;33.418;2023-07-28T12:42:09;4.90;;;1.80;;
74577;SDS011;63173;49.086;33.418;2023-07-28T12:44:36;3.33;;;1.65;;
74577;SDS011;63173;49.086;33.418;2023-07-28T12:47:05;4.95;;;1.60;;
74577;SDS011;63173;49.086;33.418;2023-07-28T12:49:30;4.07;;;1.67;;
74577;SDS011;63173;49.086;33.418;2023-07-28T12:51:57;2.80;;;1.70;;
74577;SDS011;63173;49.086;33.418;2023-07-28T12:54:24;6.60;;;1.80;;
74577;SDS011;63173;49.086;33.418;2023-07-28T12:56:54;7.07;;;1.90;;
74577;SDS011;63173;49.086;33.418;2023-07-28T12:59:19;5.15;;;1.55;;
74577;SDS011;63173;49.086;33.418;2023-07-28T13:01:45;2.33;;;1.63;;
74577;SDS011;63173;49.086;33.418;2023-07-28T13:04:11;3.50;;;1.90;;
74577;SDS011;63173;49.086;33.418;2023-07-28T13:06:36;6.63;;;1.77;;
74577;SDS011;63173;49.086;33.418;2023-07-28T13:09:06;7.70;;;2.00;;
74577;SDS011;63173;49.086;33.418;2023-07-28T13:11:33;3.40;;;1.60;;
74577;SDS011;63173;49.086;33.418;2023-07-28T13:13:58;4.00;;;1.75;;
74577;SDS011;63173;49.086;33.418;2023-07-28T13:16:24;4.45;;;1.73;;
74577;SDS011;63173;49.086;33.418;2023-07-28T13:18:49;4.45;;;1.83;;
74577;SDS011;63173;49.086;33.418;2023-07-28T13:21:14;6.53;;;2.20;;
74577;SDS011;63173;49.086;33.418;2023-07-28T13:23:40;3.25;;;1.40;;
74577;SDS011;63173;49.086;33.418;2023-07-28T13:26:05;2.97;;;1.60;;
74577;SDS011;63173;49.086;33.418;2023-07-28T13:28:31;2.58;;;1.60;;
74577;SDS011;63173;49.086;33.418;2023-07-28T13:30:57;5.55;;;1.50;;
74577;SDS011;63173;49.086;33.418;2023-07-28T13:33:22;2.83;;;1.55;;
74577;SDS011;63173;49.086;33.418;2023-07-28T13:35:48;4.25;;;1.52;;
74577;SDS011;63173;49.086;33.418;2023-07-28T13:38:14;6.07;;;1.40;;
74577;SDS011;63173;49.086;33.418;2023-07-28T13:40:39;3.40;;;1.70;;
74577;SDS011;63173;49.086;33.418;2023-07-28T13:43:05;2.42;;;1.60;;
74577;SDS011;63173;49.086;33.418;2023-07-28T13:45:30;2.92;;;1.40;;
74577;SDS011;63173;49.086;33.418;2023-07-28T13:47:56;4.57;;;1.50;;
74577;SDS011;63173;49.086;33.418;2023-07-28T13:50:21;3.78;;;1.50;;
74577;SDS011;63173;49.086;33.418;2023-07-28T13:52:47;4.07;;;1.20;;
74577;SDS011;63173;49.086;33.418;2023-07-28T13:55:12;4.00;;;1.42;;
74577;SDS011;63173;49.086;33.418;2023-07-28T13:57:38;6.88;;;1.55;;
74577;SDS011;63173;49.086;33.418;2023-07-28T14:00:04;3.20;;;1.35;;
74577;SDS011;63173;49.086;33.418;2023-07-28T14:02:34;2.22;;;1.40;;
74577;SDS011;63173;49.086;33.418;2023-07-28T14:05:01;5.68;;;1.67;;
74577;SDS011;63173;49.086;33.418;2023-07-28T14:07:26;5.43;;;1.25;;
74577;SDS011;63173;49.086;33.418;2023-07-28T14:09:51;2.75;;;1.50;;
74577;SDS011;63173;49.086;33.418;2023-07-28T14:12:17;3.10;;;1.40;;
74577;SDS011;63173;49.086;33.418;2023-07-28T14:14:43;7.68;;;1.48;;
74577;SDS011;63173;49.086;33.418;2023-07-28T14:17:09;6.35;;;1.58;;
74577;SDS011;63173;49.086;33.418;2023-07-28T14:19:34;3.15;;;1.30;;
74577;SDS011;63173;49.086;33.418;2023-07-28T14:22:01;5.47;;;1.48;;
74577;SDS011;63173;49.086;33.418;2023-07-28T14:24:27;2.28;;;1.17;;
74577;SDS011;63173;49.086;33.418;2023-07-28T14:26:52;6.18;;;1.50;;
74577;SDS011;63173;49.086;33.418;2023-07-28T14:29:18;6.13;;;1.55;;
74577;SDS011;63173;49.086;33.418;2023-07-28T14:31:43;9.02;;;1.50;;
74577;SDS011;63173;49.086;33.418;2023-07-28T14:34:09;3.03;;;1.13;;
74577;SDS011;63173;49.086;33.418;2023-07-28T14:36:34;4.03;;;1.30;;
74577;SDS011;63173;49.086;33.418;2023-07-28T14:39:00;6.40;;;1.55;;
74577;SDS011;63173;49.086;33.418;2023-07-28T14:41:25;8.02;;;1.33;;